Lynncamp, West Virginia
Current Conditions -  °F | °C
As of 2:53 PM on Monday 26 Jan 2015 (Local Time) from KPKB Reporting Station
Overcast Overcast  
Wind Chill: 22°   Ceiling: 1400
Heat Index: 28°   Visibility: 8mi
Dew Point: 22°   Wind: 6mph
Humidity: 78%   Direction: 300°WNW
Pressure: 29.79"   Gusts: NA
Location:  38.9676°N, 81.429°W
Report Text: KPKB 261953Z 30005KT 8SM OVC014 M02/M06 A2979 RMK AO2 SNE51 SLP095 P0000 T10221056
Loading
Personal Weather Stations






























Interactive Weather Map New forecast layout! Learn more

10-Day Weather Forecast

Advertisements
Track Severe Weather on mobile